Strona główna
METAR-TAF:

METAR-TAF

Lotnisko :

Port lotniczy Dakar

Dakar, Senegal

Szerokość geograficzna: 14-44N, Długość geograficzna: 017-30W, wysokość: 27 m

Aktualna obserwacja pogody

Raport powstał 10 minut temu, godzina 12:00 UTC
Wiatr 6 kt od północno-północny zachód
Temperatura 29°C
Wilgotność 74%
Ciśnienie 1016 hPa
Widzialność 10 km lub więcej
Mało chmury na wysokości 1300 ft

METAR: GOOY 161200Z 34006KT 9999 FEW013 29/24 Q1016

czas: 12:10 (12:10 UTC)

Prognoza

Raport powstał 40 minut temu, godzina 11:30 UTC
Prognoza ważna od 16 godzina 12 UTC do 17 godzina 18 UTC
Wiatr 8 kt od północny zachód
Widzialność 10 km lub więcej
Rozproszone chmury na wysokości 1300 ft

TAF: GOOY 161130Z 1612/1718 32008KT 9999 SCT013

Obserwacja i prognoza pogody dla ponad 4000 lotnisk (raport METAR i TAF).

Dostępne stacje oznaczono żółtymi i czerwonymi punktami na mapie.

Najedź kursorem aby zobaczyć nazwę stacji.

Kliknij aby zobaczyć obserwacje i prognozy pogody.

Aby zmienić mapę: kliknij na zielony przycisk z czarnym krzyżykiem, aby powiększyć; na zielony przycisk z myślnikiem, aby pomniejszyć; na zielone strzałki, aby przejść do map sąsiednich.


METAR-TAF: